sensor_id;sensor_type;location;lat;lon;timestamp;temperature;humidity
76291;DHT22;65100;46.884;17.410;2024-03-06T00:00:58;7.00;81.54
76291;DHT22;65100;46.884;17.410;2024-03-06T00:03:23;7.09;80.95
76291;DHT22;65100;46.884;17.410;2024-03-06T00:05:49;7.17;80.50
76291;DHT22;65100;46.884;17.410;2024-03-06T00:08:14;7.17;80.67
76291;DHT22;65100;46.884;17.410;2024-03-06T00:10:41;7.12;80.44
76291;DHT22;65100;46.884;17.410;2024-03-06T00:13:06;7.07;81.00
76291;DHT22;65100;46.884;17.410;2024-03-06T00:15:32;7.03;81.03
76291;DHT22;65100;46.884;17.410;2024-03-06T00:17:57;7.08;80.83
76291;DHT22;65100;46.884;17.410;2024-03-06T00:20:23;6.98;80.89
76291;DHT22;65100;46.884;17.410;2024-03-06T00:22:49;6.87;81.08
76291;DHT22;65100;46.884;17.410;2024-03-06T00:25:14;6.84;82.00
76291;DHT22;65100;46.884;17.410;2024-03-06T00:27:40;6.90;82.49
76291;DHT22;65100;46.884;17.410;2024-03-06T00:30:06;6.69;82.91
76291;DHT22;65100;46.884;17.410;2024-03-06T00:32:32;6.67;83.04
76291;DHT22;65100;46.884;17.410;2024-03-06T00:34:57;6.50;83.23
76291;DHT22;65100;46.884;17.410;2024-03-06T00:37:23;6.32;83.73
76291;DHT22;65100;46.884;17.410;2024-03-06T00:39:48;6.49;83.78
76291;DHT22;65100;46.884;17.410;2024-03-06T00:42:13;6.57;83.23
76291;DHT22;65100;46.884;17.410;2024-03-06T00:44:39;6.49;83.52
76291;DHT22;65100;46.884;17.410;2024-03-06T00:47:04;6.30;84.19
76291;DHT22;65100;46.884;17.410;2024-03-06T00:49:30;6.17;83.98
76291;DHT22;65100;46.884;17.410;2024-03-06T00:55:17;6.37;83.52
76291;DHT22;65100;46.884;17.410;2024-03-06T00:57:43;6.34;84.04
76291;DHT22;65100;46.884;17.410;2024-03-06T01:00:09;6.37;83.85
76291;DHT22;65100;46.884;17.410;2024-03-06T01:02:37;6.60;83.21
76291;DHT22;65100;46.884;17.410;2024-03-06T01:05:03;6.66;83.29
76291;DHT22;65100;46.884;17.410;2024-03-06T01:07:29;6.61;83.02
76291;DHT22;65100;46.884;17.410;2024-03-06T01:09:56;6.56;82.75
76291;DHT22;65100;46.884;17.410;2024-03-06T01:12:23;6.25;83.90
76291;DHT22;65100;46.884;17.410;2024-03-06T01:14:48;6.12;84.14
76291;DHT22;65100;46.884;17.410;2024-03-06T01:17:14;5.99;85.00
76291;DHT22;65100;46.884;17.410;2024-03-06T01:19:40;5.92;85.68
76291;DHT22;65100;46.884;17.410;2024-03-06T01:22:05;6.22;85.74
76291;DHT22;65100;46.884;17.410;2024-03-06T01:24:31;6.20;85.40
76291;DHT22;65100;46.884;17.410;2024-03-06T01:26:57;6.40;84.99
76291;DHT22;65100;46.884;17.410;2024-03-06T01:29:23;6.29;85.17
76291;DHT22;65100;46.884;17.410;2024-03-06T01:34:55;6.34;84.87
76291;DHT22;65100;46.884;17.410;2024-03-06T01:37:21;6.39;84.80
76291;DHT22;65100;46.884;17.410;2024-03-06T01:39:46;6.23;85.38
76291;DHT22;65100;46.884;17.410;2024-03-06T01:42:11;6.37;85.88
76291;DHT22;65100;46.884;17.410;2024-03-06T01:44:37;6.02;85.28
76291;DHT22;65100;46.884;17.410;2024-03-06T01:47:03;5.98;86.09
76291;DHT22;65100;46.884;17.410;2024-03-06T01:49:28;6.06;86.53
76291;DHT22;65100;46.884;17.410;2024-03-06T01:51:56;6.27;85.62
76291;DHT22;65100;46.884;17.410;2024-03-06T01:54:23;6.37;83.35
76291;DHT22;65100;46.884;17.410;2024-03-06T01:56:50;6.33;84.35
76291;DHT22;65100;46.884;17.410;2024-03-06T01:59:19;6.47;84.11
76291;DHT22;65100;46.884;17.410;2024-03-06T02:01:46;6.49;84.48
76291;DHT22;65100;46.884;17.410;2024-03-06T02:04:12;6.70;84.30
76291;DHT22;65100;46.884;17.410;2024-03-06T02:06:41;6.88;83.14
76291;DHT22;65100;46.884;17.410;2024-03-06T02:09:07;6.88;82.36
76291;DHT22;65100;46.884;17.410;2024-03-06T02:11:33;6.91;82.71
76291;DHT22;65100;46.884;17.410;2024-03-06T02:13:58;6.85;84.11
76291;DHT22;65100;46.884;17.410;2024-03-06T02:16:24;6.93;84.66
76291;DHT22;65100;46.884;17.410;2024-03-06T02:18:56;6.81;84.19
76291;DHT22;65100;46.884;17.410;2024-03-06T02:21:28;6.73;84.87
76291;DHT22;65100;46.884;17.410;2024-03-06T02:23:53;6.85;84.95
76291;DHT22;65100;46.884;17.410;2024-03-06T02:26:20;6.84;85.01
76291;DHT22;65100;46.884;17.410;2024-03-06T02:28:53;6.71;84.73
76291;DHT22;65100;46.884;17.410;2024-03-06T02:31:19;6.79;84.21
76291;DHT22;65100;46.884;17.410;2024-03-06T02:33:47;6.73;84.43
76291;DHT22;65100;46.884;17.410;2024-03-06T02:36:19;7.00;86.13
76291;DHT22;65100;46.884;17.410;2024-03-06T02:38:45;7.05;86.06
76291;DHT22;65100;46.884;17.410;2024-03-06T02:41:11;7.12;85.76
76291;DHT22;65100;46.884;17.410;2024-03-06T02:43:37;7.07;85.42
76291;DHT22;65100;46.884;17.410;2024-03-06T02:46:03;7.24;86.09
76291;DHT22;65100;46.884;17.410;2024-03-06T02:48:29;7.17;85.42
76291;DHT22;65100;46.884;17.410;2024-03-06T02:50:55;7.14;85.51
76291;DHT22;65100;46.884;17.410;2024-03-06T02:53:21;7.01;85.38
76291;DHT22;65100;46.884;17.410;2024-03-06T02:55:47;7.05;85.32
76291;DHT22;65100;46.884;17.410;2024-03-06T02:58:12;6.66;86.59
76291;DHT22;65100;46.884;17.410;2024-03-06T03:00:39;6.51;87.42
76291;DHT22;65100;46.884;17.410;2024-03-06T03:03:06;6.67;87.43
76291;DHT22;65100;46.884;17.410;2024-03-06T03:05:31;6.81;87.17
76291;DHT22;65100;46.884;17.410;2024-03-06T03:07:58;6.71;86.41
76291;DHT22;65100;46.884;17.410;2024-03-06T03:10:24;6.64;86.02
76291;DHT22;65100;46.884;17.410;2024-03-06T03:12:50;6.49;86.30
76291;DHT22;65100;46.884;17.410;2024-03-06T03:15:15;6.50;86.61
76291;DHT22;65100;46.884;17.410;2024-03-06T03:17:41;6.43;86.10
76291;DHT22;65100;46.884;17.410;2024-03-06T03:20:07;6.44;86.41
76291;DHT22;65100;46.884;17.410;2024-03-06T03:22:39;6.70;86.73
76291;DHT22;65100;46.884;17.410;2024-03-06T03:25:09;6.63;86.20
76291;DHT22;65100;46.884;17.410;2024-03-06T03:27:36;6.70;84.96
76291;DHT22;65100;46.884;17.410;2024-03-06T03:30:02;6.77;84.80
76291;DHT22;65100;46.884;17.410;2024-03-06T03:32:28;6.79;84.51
76291;DHT22;65100;46.884;17.410;2024-03-06T03:34:54;6.66;84.79
76291;DHT22;65100;46.884;17.410;2024-03-06T03:37:19;6.83;84.70
76291;DHT22;65100;46.884;17.410;2024-03-06T03:39:44;6.83;84.77
76291;DHT22;65100;46.884;17.410;2024-03-06T03:42:10;6.81;85.15
76291;DHT22;65100;46.884;17.410;2024-03-06T03:44:35;6.71;84.85
76291;DHT22;65100;46.884;17.410;2024-03-06T03:47:01;6.81;85.57
76291;DHT22;65100;46.884;17.410;2024-03-06T03:49:27;6.83;85.31
76291;DHT22;65100;46.884;17.410;2024-03-06T03:51:52;6.90;85.80
76291;DHT22;65100;46.884;17.410;2024-03-06T03:54:18;6.87;85.43
76291;DHT22;65100;46.884;17.410;2024-03-06T03:56:43;6.79;84.54
76291;DHT22;65100;46.884;17.410;2024-03-06T03:59:09;6.84;86.02
76291;DHT22;65100;46.884;17.410;2024-03-06T04:01:34;6.80;85.50
76291;DHT22;65100;46.884;17.410;2024-03-06T04:04:00;6.73;85.51
76291;DHT22;65100;46.884;17.410;2024-03-06T04:06:25;6.58;85.06
76291;DHT22;65100;46.884;17.410;2024-03-06T04:08:51;6.60;83.76
76291;DHT22;65100;46.884;17.410;2024-03-06T04:11:16;6.57;84.74
76291;DHT22;65100;46.884;17.410;2024-03-06T04:13:42;6.56;84.86
76291;DHT22;65100;46.884;17.410;2024-03-06T04:16:07;6.51;85.04
76291;DHT22;65100;46.884;17.410;2024-03-06T04:18:33;6.41;84.77
76291;DHT22;65100;46.884;17.410;2024-03-06T04:21:03;6.37;84.58
76291;DHT22;65100;46.884;17.410;2024-03-06T04:23:29;6.32;84.81
76291;DHT22;65100;46.884;17.410;2024-03-06T04:25:55;6.33;85.12
76291;DHT22;65100;46.884;17.410;2024-03-06T04:28:21;6.22;85.57
76291;DHT22;65100;46.884;17.410;2024-03-06T04:30:46;6.32;85.51
76291;DHT22;65100;46.884;17.410;2024-03-06T04:33:12;6.30;85.64
76291;DHT22;65100;46.884;17.410;2024-03-06T04:35:40;6.33;85.21
76291;DHT22;65100;46.884;17.410;2024-03-06T04:38:06;6.29;83.86
76291;DHT22;65100;46.884;17.410;2024-03-06T04:40:31;6.37;84.81
76291;DHT22;65100;46.884;17.410;2024-03-06T04:42:57;6.40;84.50
76291;DHT22;65100;46.884;17.410;2024-03-06T04:45:22;6.36;84.54
76291;DHT22;65100;46.884;17.410;2024-03-06T04:47:48;6.34;83.83
76291;DHT22;65100;46.884;17.410;2024-03-06T04:50:13;6.27;83.88
76291;DHT22;65100;46.884;17.410;2024-03-06T04:52:42;6.23;84.43
76291;DHT22;65100;46.884;17.410;2024-03-06T04:55:10;6.22;85.37
76291;DHT22;65100;46.884;17.410;2024-03-06T04:57:39;6.30;84.01
76291;DHT22;65100;46.884;17.410;2024-03-06T05:00:09;6.29;84.32
76291;DHT22;65100;46.884;17.410;2024-03-06T05:02:35;6.33;84.53
76291;DHT22;65100;46.884;17.410;2024-03-06T05:05:03;6.10;83.01
76291;DHT22;65100;46.884;17.410;2024-03-06T05:07:29;6.07;84.22
76291;DHT22;65100;46.884;17.410;2024-03-06T05:09:56;6.20;85.24
76291;DHT22;65100;46.884;17.410;2024-03-06T05:12:25;6.26;85.01
76291;DHT22;65100;46.884;17.410;2024-03-06T05:14:51;6.32;85.13
76291;DHT22;65100;46.884;17.410;2024-03-06T05:17:17;6.40;84.98
76291;DHT22;65100;46.884;17.410;2024-03-06T05:19:44;6.39;84.91
76291;DHT22;65100;46.884;17.410;2024-03-06T05:22:10;6.44;85.39
76291;DHT22;65100;46.884;17.410;2024-03-06T05:24:37;6.49;85.07
76291;DHT22;65100;46.884;17.410;2024-03-06T05:27:02;6.51;85.60
76291;DHT22;65100;46.884;17.410;2024-03-06T05:29:28;6.57;85.77
76291;DHT22;65100;46.884;17.410;2024-03-06T05:31:53;6.63;85.81
76291;DHT22;65100;46.884;17.410;2024-03-06T05:34:20;6.70;85.57
76291;DHT22;65100;46.884;17.410;2024-03-06T05:36:45;6.83;85.29
76291;DHT22;65100;46.884;17.410;2024-03-06T05:39:11;6.88;85.66
76291;DHT22;65100;46.884;17.410;2024-03-06T05:41:38;6.94;85.14
76291;DHT22;65100;46.884;17.410;2024-03-06T05:44:05;6.97;85.96
76291;DHT22;65100;46.884;17.410;2024-03-06T05:46:30;6.97;86.14
76291;DHT22;65100;46.884;17.410;2024-03-06T05:48:56;6.77;85.79
76291;DHT22;65100;46.884;17.410;2024-03-06T05:51:21;6.98;85.72
76291;DHT22;65100;46.884;17.410;2024-03-06T05:53:47;6.77;85.33
76291;DHT22;65100;46.884;17.410;2024-03-06T05:56:12;7.05;86.07
76291;DHT22;65100;46.884;17.410;2024-03-06T05:58:38;7.07;84.86
76291;DHT22;65100;46.884;17.410;2024-03-06T06:01:03;7.05;85.41
76291;DHT22;65100;46.884;17.410;2024-03-06T06:03:30;7.03;85.07
76291;DHT22;65100;46.884;17.410;2024-03-06T06:05:56;7.05;85.72
76291;DHT22;65100;46.884;17.410;2024-03-06T06:08:21;7.08;85.07
76291;DHT22;65100;46.884;17.410;2024-03-06T06:10:47;7.14;85.62
76291;DHT22;65100;46.884;17.410;2024-03-06T06:13:12;7.14;85.60
76291;DHT22;65100;46.884;17.410;2024-03-06T06:15:38;7.09;85.45
76291;DHT22;65100;46.884;17.410;2024-03-06T06:18:04;7.15;85.26
76291;DHT22;65100;46.884;17.410;2024-03-06T06:20:29;7.27;85.33
76291;DHT22;65100;46.884;17.410;2024-03-06T06:22:55;7.39;84.78
76291;DHT22;65100;46.884;17.410;2024-03-06T06:25:21;7.38;84.71
76291;DHT22;65100;46.884;17.410;2024-03-06T06:27:46;7.52;84.70
76291;DHT22;65100;46.884;17.410;2024-03-06T06:30:14;7.56;84.30
76291;DHT22;65100;46.884;17.410;2024-03-06T06:32:40;7.65;84.69
76291;DHT22;65100;46.884;17.410;2024-03-06T06:35:06;7.71;83.99
76291;DHT22;65100;46.884;17.410;2024-03-06T06:37:32;7.71;84.51
76291;DHT22;65100;46.884;17.410;2024-03-06T06:39:59;7.75;84.80
76291;DHT22;65100;46.884;17.410;2024-03-06T06:42:24;7.71;84.49
76291;DHT22;65100;46.884;17.410;2024-03-06T06:44:50;7.69;84.49
76291;DHT22;65100;46.884;17.410;2024-03-06T06:47:16;7.72;84.50
76291;DHT22;65100;46.884;17.410;2024-03-06T06:49:42;7.69;84.44
76291;DHT22;65100;46.884;17.410;2024-03-06T06:52:07;7.73;84.01
76291;DHT22;65100;46.884;17.410;2024-03-06T06:54:33;7.86;84.50
76291;DHT22;65100;46.884;17.410;2024-03-06T06:56:58;7.87;83.67
76291;DHT22;65100;46.884;17.410;2024-03-06T06:59:24;7.87;83.47
76291;DHT22;65100;46.884;17.410;2024-03-06T07:01:49;7.90;83.56
76291;DHT22;65100;46.884;17.410;2024-03-06T07:04:15;7.87;83.03
76291;DHT22;65100;46.884;17.410;2024-03-06T07:06:45;7.94;82.76
76291;DHT22;65100;46.884;17.410;2024-03-06T07:09:12;8.02;82.88
76291;DHT22;65100;46.884;17.410;2024-03-06T07:11:37;8.13;82.56
76291;DHT22;65100;46.884;17.410;2024-03-06T07:14:03;7.99;82.04
76291;DHT22;65100;46.884;17.410;2024-03-06T07:16:28;8.16;83.06
76291;DHT22;65100;46.884;17.410;2024-03-06T07:18:53;8.19;82.00
76291;DHT22;65100;46.884;17.410;2024-03-06T07:21:19;8.19;81.37
76291;DHT22;65100;46.884;17.410;2024-03-06T07:23:44;8.41;81.49
76291;DHT22;65100;46.884;17.410;2024-03-06T07:26:10;8.61;81.60
76291;DHT22;65100;46.884;17.410;2024-03-06T07:28:35;8.61;80.84
76291;DHT22;65100;46.884;17.410;2024-03-06T07:31:02;8.72;81.40
76291;DHT22;65100;46.884;17.410;2024-03-06T07:33:28;8.82;81.06
76291;DHT22;65100;46.884;17.410;2024-03-06T07:35:53;8.80;80.52
76291;DHT22;65100;46.884;17.410;2024-03-06T07:38:19;8.91;81.05
76291;DHT22;65100;46.884;17.410;2024-03-06T07:40:46;8.97;81.18
76291;DHT22;65100;46.884;17.410;2024-03-06T07:43:11;9.02;80.08
76291;DHT22;65100;46.884;17.410;2024-03-06T07:45:37;9.19;79.14
76291;DHT22;65100;46.884;17.410;2024-03-06T07:48:02;9.28;79.47
76291;DHT22;65100;46.884;17.410;2024-03-06T07:50:28;9.46;78.90
76291;DHT22;65100;46.884;17.410;2024-03-06T07:52:53;9.40;78.93
76291;DHT22;65100;46.884;17.410;2024-03-06T07:55:20;9.35;78.41
76291;DHT22;65100;46.884;17.410;2024-03-06T07:57:47;9.43;78.72
76291;DHT22;65100;46.884;17.410;2024-03-06T08:00:13;9.36;78.93
76291;DHT22;65100;46.884;17.410;2024-03-06T08:02:45;9.29;78.85
76291;DHT22;65100;46.884;17.410;2024-03-06T08:05:15;9.19;77.65
76291;DHT22;65100;46.884;17.410;2024-03-06T08:07:41;9.31;78.63
76291;DHT22;65100;46.884;17.410;2024-03-06T08:10:11;9.43;78.34
76291;DHT22;65100;46.884;17.410;2024-03-06T08:12:43;9.63;77.85
76291;DHT22;65100;46.884;17.410;2024-03-06T08:15:12;9.87;76.78
76291;DHT22;65100;46.884;17.410;2024-03-06T08:17:42;9.87;76.34
76291;DHT22;65100;46.884;17.410;2024-03-06T08:20:09;9.96;75.96
76291;DHT22;65100;46.884;17.410;2024-03-06T08:22:42;10.16;75.89
76291;DHT22;65100;46.884;17.410;2024-03-06T08:25:09;10.07;75.80
76291;DHT22;65100;46.884;17.410;2024-03-06T08:27:36;10.04;75.56
76291;DHT22;65100;46.884;17.410;2024-03-06T08:30:03;10.21;75.29
76291;DHT22;65100;46.884;17.410;2024-03-06T08:32:33;10.61;75.29
76291;DHT22;65100;46.884;17.410;2024-03-06T08:35:11;10.56;73.85
76291;DHT22;65100;46.884;17.410;2024-03-06T08:37:41;10.85;74.97
76291;DHT22;65100;46.884;17.410;2024-03-06T08:40:07;10.78;71.81
76291;DHT22;65100;46.884;17.410;2024-03-06T08:42:35;11.07;73.16
76291;DHT22;65100;46.884;17.410;2024-03-06T08:45:01;10.97;72.28
76291;DHT22;65100;46.884;17.410;2024-03-06T08:47:27;11.01;73.26
76291;DHT22;65100;46.884;17.410;2024-03-06T08:49:52;11.14;72.43
76291;DHT22;65100;46.884;17.410;2024-03-06T08:52:18;11.31;72.47
76291;DHT22;65100;46.884;17.410;2024-03-06T08:54:43;11.40;71.25
76291;DHT22;65100;46.884;17.410;2024-03-06T08:57:10;11.43;71.61
76291;DHT22;65100;46.884;17.410;2024-03-06T08:59:35;11.48;70.47
76291;DHT22;65100;46.884;17.410;2024-03-06T09:02:19;11.52;71.57
76291;DHT22;65100;46.884;17.410;2024-03-06T09:04:46;11.54;70.90
76291;DHT22;65100;46.884;17.410;2024-03-06T09:07:12;11.58;70.37
76291;DHT22;65100;46.884;17.410;2024-03-06T09:09:38;11.56;70.62
76291;DHT22;65100;46.884;17.410;2024-03-06T09:12:05;11.62;70.06
76291;DHT22;65100;46.884;17.410;2024-03-06T09:14:34;11.66;68.75
76291;DHT22;65100;46.884;17.410;2024-03-06T09:17:00;11.80;68.98
76291;DHT22;65100;46.884;17.410;2024-03-06T09:19:26;11.99;68.49
76291;DHT22;65100;46.884;17.410;2024-03-06T09:21:51;12.20;67.10
76291;DHT22;65100;46.884;17.410;2024-03-06T09:24:17;12.44;66.52
76291;DHT22;65100;46.884;17.410;2024-03-06T09:26:43;12.88;65.90
76291;DHT22;65100;46.884;17.410;2024-03-06T09:29:09;14.03;61.75
76291;DHT22;65100;46.884;17.410;2024-03-06T09:32:16;14.09;62.65
76291;DHT22;65100;46.884;17.410;2024-03-06T09:34:42;14.27;59.98
76291;DHT22;65100;46.884;17.410;2024-03-06T09:37:08;14.12;61.10
76291;DHT22;65100;46.884;17.410;2024-03-06T09:39:35;13.48;62.95
76291;DHT22;65100;46.884;17.410;2024-03-06T09:42:00;13.00;64.33
76291;DHT22;65100;46.884;17.410;2024-03-06T09:44:30;12.80;65.37
76291;DHT22;65100;46.884;17.410;2024-03-06T09:47:02;12.65;65.26
76291;DHT22;65100;46.884;17.410;2024-03-06T09:49:31;12.65;65.66
76291;DHT22;65100;46.884;17.410;2024-03-06T09:51:58;12.65;65.48
76291;DHT22;65100;46.884;17.410;2024-03-06T09:54:25;12.68;66.04
76291;DHT22;65100;46.884;17.410;2024-03-06T09:56:51;12.61;65.30
76291;DHT22;65100;46.884;17.410;2024-03-06T09:59:17;12.73;65.83
76291;DHT22;65100;46.884;17.410;2024-03-06T10:01:50;12.63;65.24
76291;DHT22;65100;46.884;17.410;2024-03-06T10:04:28;12.60;65.31
76291;DHT22;65100;46.884;17.410;2024-03-06T10:06:58;12.69;65.47
76291;DHT22;65100;46.884;17.410;2024-03-06T10:09:25;12.85;65.86
76291;DHT22;65100;46.884;17.410;2024-03-06T10:11:51;12.92;65.67
76291;DHT22;65100;46.884;17.410;2024-03-06T10:14:19;12.92;65.09
76291;DHT22;65100;46.884;17.410;2024-03-06T10:16:52;12.90;65.58
76291;DHT22;65100;46.884;17.410;2024-03-06T10:19:18;12.91;65.37
76291;DHT22;65100;46.884;17.410;2024-03-06T10:21:47;12.88;65.31
76291;DHT22;65100;46.884;17.410;2024-03-06T10:24:29;12.80;64.81
76291;DHT22;65100;46.884;17.410;2024-03-06T10:26:55;12.68;64.70
76291;DHT22;65100;46.884;17.410;2024-03-06T10:29:25;12.78;65.56
76291;DHT22;65100;46.884;17.410;2024-03-06T10:31:52;12.83;64.35
76291;DHT22;65100;46.884;17.410;2024-03-06T10:34:20;12.97;65.60
76291;DHT22;65100;46.884;17.410;2024-03-06T10:36:49;13.14;64.25
76291;DHT22;65100;46.884;17.410;2024-03-06T10:39:19;13.31;63.25
76291;DHT22;65100;46.884;17.410;2024-03-06T10:41:46;13.29;62.56
76291;DHT22;65100;46.884;17.410;2024-03-06T10:44:17;13.35;64.12
76291;DHT22;65100;46.884;17.410;2024-03-06T10:46:46;13.45;63.11
76291;DHT22;65100;46.884;17.410;2024-03-06T10:49:13;13.36;62.65
76291;DHT22;65100;46.884;17.410;2024-03-06T10:51:42;13.29;62.93
76291;DHT22;65100;46.884;17.410;2024-03-06T10:54:09;13.38;62.33
76291;DHT22;65100;46.884;17.410;2024-03-06T10:56:39;13.46;62.23
76291;DHT22;65100;46.884;17.410;2024-03-06T10:59:09;13.46;61.74
76291;DHT22;65100;46.884;17.410;2024-03-06T11:01:36;13.46;62.17
76291;DHT22;65100;46.884;17.410;2024-03-06T11:04:03;13.62;61.75
76291;DHT22;65100;46.884;17.410;2024-03-06T11:06:32;13.67;62.23
76291;DHT22;65100;46.884;17.410;2024-03-06T11:08:59;13.70;61.36
76291;DHT22;65100;46.884;17.410;2024-03-06T11:11:28;13.79;61.24
76291;DHT22;65100;46.884;17.410;2024-03-06T11:13:59;13.76;60.39
76291;DHT22;65100;46.884;17.410;2024-03-06T11:16:29;13.77;60.20
76291;DHT22;65100;46.884;17.410;2024-03-06T11:19:06;13.83;61.45
76291;DHT22;65100;46.884;17.410;2024-03-06T11:21:32;13.93;61.23
76291;DHT22;65100;46.884;17.410;2024-03-06T11:24:18;13.93;59.90
76291;DHT22;65100;46.884;17.410;2024-03-06T11:29:29;13.96;60.50
76291;DHT22;65100;46.884;17.410;2024-03-06T11:34:30;14.10;60.79
76291;DHT22;65100;46.884;17.410;2024-03-06T11:37:02;14.17;60.52
76291;DHT22;65100;46.884;17.410;2024-03-06T11:39:34;14.20;59.69
76291;DHT22;65100;46.884;17.410;2024-03-06T11:41:59;14.27;60.37
76291;DHT22;65100;46.884;17.410;2024-03-06T11:44:26;14.26;60.61
76291;DHT22;65100;46.884;17.410;2024-03-06T11:47:03;14.34;60.40
76291;DHT22;65100;46.884;17.410;2024-03-06T11:49:30;14.33;59.73
76291;DHT22;65100;46.884;17.410;2024-03-06T11:52:09;14.33;59.12
76291;DHT22;65100;46.884;17.410;2024-03-06T11:54:36;14.36;59.97
76291;DHT22;65100;46.884;17.410;2024-03-06T11:57:03;14.37;59.12
76291;DHT22;65100;46.884;17.410;2024-03-06T11:59:30;14.47;59.19
76291;DHT22;65100;46.884;17.410;2024-03-06T12:01:58;14.47;58.62
76291;DHT22;65100;46.884;17.410;2024-03-06T12:04:27;14.44;58.81
76291;DHT22;65100;46.884;17.410;2024-03-06T12:06:56;14.26;58.90
76291;DHT22;65100;46.884;17.410;2024-03-06T12:09:21;14.33;59.39
76291;DHT22;65100;46.884;17.410;2024-03-06T12:11:47;14.44;59.13
76291;DHT22;65100;46.884;17.410;2024-03-06T12:14:19;14.50;59.30
76291;DHT22;65100;46.884;17.410;2024-03-06T12:17:01;14.44;57.99
76291;DHT22;65100;46.884;17.410;2024-03-06T12:19:34;14.47;59.28
76291;DHT22;65100;46.884;17.410;2024-03-06T12:22:04;14.51;59.04
76291;DHT22;65100;46.884;17.410;2024-03-06T12:24:30;14.48;58.56
76291;DHT22;65100;46.884;17.410;2024-03-06T12:27:00;14.51;58.17
76291;DHT22;65100;46.884;17.410;2024-03-06T12:29:28;14.47;57.47
76291;DHT22;65100;46.884;17.410;2024-03-06T12:31:53;14.50;58.57
76291;DHT22;65100;46.884;17.410;2024-03-06T12:34:19;14.31;57.84
76291;DHT22;65100;46.884;17.410;2024-03-06T12:36:45;14.37;57.87
76291;DHT22;65100;46.884;17.410;2024-03-06T12:39:15;14.45;58.91
76291;DHT22;65100;46.884;17.410;2024-03-06T12:41:43;14.43;57.59
76291;DHT22;65100;46.884;17.410;2024-03-06T12:44:09;14.38;57.40
76291;DHT22;65100;46.884;17.410;2024-03-06T12:46:34;14.27;56.71
76291;DHT22;65100;46.884;17.410;2024-03-06T12:49:00;14.30;57.45
76291;DHT22;65100;46.884;17.410;2024-03-06T12:51:26;14.45;58.93
76291;DHT22;65100;46.884;17.410;2024-03-06T12:53:52;14.56;58.11
76291;DHT22;65100;46.884;17.410;2024-03-06T12:56:18;14.53;56.23
76291;DHT22;65100;46.884;17.410;2024-03-06T12:58:44;14.50;57.40
76291;DHT22;65100;46.884;17.410;2024-03-06T13:01:09;14.56;58.14
76291;DHT22;65100;46.884;17.410;2024-03-06T13:03:38;14.65;58.50
76291;DHT22;65100;46.884;17.410;2024-03-06T13:06:04;14.74;57.15
76291;DHT22;65100;46.884;17.410;2024-03-06T13:08:31;14.73;57.91
76291;DHT22;65100;46.884;17.410;2024-03-06T13:10:57;14.63;57.80
76291;DHT22;65100;46.884;17.410;2024-03-06T13:13:23;14.53;57.27
76291;DHT22;65100;46.884;17.410;2024-03-06T13:15:54;14.60;58.10
76291;DHT22;65100;46.884;17.410;2024-03-06T13:18:19;14.59;57.45
76291;DHT22;65100;46.884;17.410;2024-03-06T13:20:48;14.61;57.17
76291;DHT22;65100;46.884;17.410;2024-03-06T13:23:14;14.59;56.80
76291;DHT22;65100;46.884;17.410;2024-03-06T13:25:39;14.57;56.92
76291;DHT22;65100;46.884;17.410;2024-03-06T13:28:05;14.59;57.12
76291;DHT22;65100;46.884;17.410;2024-03-06T13:30:31;14.43;56.91
76291;DHT22;65100;46.884;17.410;2024-03-06T13:32:57;14.54;57.17
76291;DHT22;65100;46.884;17.410;2024-03-06T13:35:23;14.64;58.21
76291;DHT22;65100;46.884;17.410;2024-03-06T13:37:48;14.73;57.71
76291;DHT22;65100;46.884;17.410;2024-03-06T13:40:19;14.73;57.09
76291;DHT22;65100;46.884;17.410;2024-03-06T13:42:45;14.65;57.08
76291;DHT22;65100;46.884;17.410;2024-03-06T13:45:11;14.63;57.58
76291;DHT22;65100;46.884;17.410;2024-03-06T13:47:41;14.54;57.49
76291;DHT22;65100;46.884;17.410;2024-03-06T13:50:08;14.47;57.23
76291;DHT22;65100;46.884;17.410;2024-03-06T13:52:34;14.48;58.52
76291;DHT22;65100;46.884;17.410;2024-03-06T13:54:59;14.63;58.86
76291;DHT22;65100;46.884;17.410;2024-03-06T13:57:28;14.65;57.63
76291;DHT22;65100;46.884;17.410;2024-03-06T13:59:54;14.63;57.91
76291;DHT22;65100;46.884;17.410;2024-03-06T14:02:19;14.65;58.47
76291;DHT22;65100;46.884;17.410;2024-03-06T14:04:45;14.77;58.86
76291;DHT22;65100;46.884;17.410;2024-03-06T14:07:10;14.71;57.94
76291;DHT22;65100;46.884;17.410;2024-03-06T14:09:36;14.65;57.44
76291;DHT22;65100;46.884;17.410;2024-03-06T14:12:01;14.38;57.80
76291;DHT22;65100;46.884;17.410;2024-03-06T14:14:27;14.33;58.57
76291;DHT22;65100;46.884;17.410;2024-03-06T14:17:13;14.53;59.68
76291;DHT22;65100;46.884;17.410;2024-03-06T14:19:39;14.61;58.78
76291;DHT22;65100;46.884;17.410;2024-03-06T14:22:08;14.56;58.38
76291;DHT22;65100;46.884;17.410;2024-03-06T14:24:33;14.51;58.37
76291;DHT22;65100;46.884;17.410;2024-03-06T14:26:59;14.50;58.58
76291;DHT22;65100;46.884;17.410;2024-03-06T14:29:25;14.57;58.61
76291;DHT22;65100;46.884;17.410;2024-03-06T14:31:53;14.59;58.91
76291;DHT22;65100;46.884;17.410;2024-03-06T14:34:18;14.59;59.21
76291;DHT22;65100;46.884;17.410;2024-03-06T14:36:45;14.50;58.85
76291;DHT22;65100;46.884;17.410;2024-03-06T14:39:11;14.48;58.95
76291;DHT22;65100;46.884;17.410;2024-03-06T14:41:36;14.45;58.55
76291;DHT22;65100;46.884;17.410;2024-03-06T14:44:02;14.29;58.39
76291;DHT22;65100;46.884;17.410;2024-03-06T14:46:28;14.23;59.62
76291;DHT22;65100;46.884;17.410;2024-03-06T14:48:54;14.27;59.91
76291;DHT22;65100;46.884;17.410;2024-03-06T14:51:20;14.19;60.07
76291;DHT22;65100;46.884;17.410;2024-03-06T14:53:45;14.19;60.61
76291;DHT22;65100;46.884;17.410;2024-03-06T14:56:11;14.21;61.02
76291;DHT22;65100;46.884;17.410;2024-03-06T14:58:37;14.19;60.62
76291;DHT22;65100;46.884;17.410;2024-03-06T15:01:03;14.16;59.98
76291;DHT22;65100;46.884;17.410;2024-03-06T15:03:29;14.19;60.99
76291;DHT22;65100;46.884;17.410;2024-03-06T15:05:54;14.23;61.10
76291;DHT22;65100;46.884;17.410;2024-03-06T15:08:19;14.20;60.28
76291;DHT22;65100;46.884;17.410;2024-03-06T15:10:45;14.13;59.98
76291;DHT22;65100;46.884;17.410;2024-03-06T15:13:10;14.02;58.89
76291;DHT22;65100;46.884;17.410;2024-03-06T15:15:38;13.91;59.64
76291;DHT22;65100;46.884;17.410;2024-03-06T15:18:05;13.89;59.55
76291;DHT22;65100;46.884;17.410;2024-03-06T15:20:31;13.80;59.72
76291;DHT22;65100;46.884;17.410;2024-03-06T15:22:58;13.76;60.40
76291;DHT22;65100;46.884;17.410;2024-03-06T15:25:24;13.70;60.69
76291;DHT22;65100;46.884;17.410;2024-03-06T15:27:49;13.66;60.42
76291;DHT22;65100;46.884;17.410;2024-03-06T15:30:15;13.67;60.85
76291;DHT22;65100;46.884;17.410;2024-03-06T15:32:44;13.66;60.52
76291;DHT22;65100;46.884;17.410;2024-03-06T15:35:09;13.67;61.36